Time;durP1;ratioP1;P1;durP2;ratioP2;P2;SDS_P1;SDS_P2;PMS_P1;PMS_P2;Temp;Humidity;BMP_temperature;BMP_pressure;BME280_temperature;BME280_humidity;BME280_pressure;Samples;Min_cycle;Max_cycle;Signal;HPM_P1;HPM_P2
2024/04/06 00:01:20;;;;;;;7.45;2.85;;;;;;;14.16;100.00;99420.13;5060712;28;20040;-77
2024/04/06 00:03:45;;;;;;;5.00;2.75;;;;;;;14.14;100.00;99423.25;5043646;28;20044;-77
2024/04/06 00:06:11;;;;;;;6.55;3.10;;;;;;;14.16;100.00;99420.13;5060526;28;20040;-77
2024/04/06 00:08:36;;;;;;;6.68;2.70;;;;;;;14.14;100.00;99423.25;5043424;28;20032;-76
2024/04/06 00:11:02;;;;;;;8.50;3.13;;;;;;;14.13;100.00;99420.81;5059818;28;20032;-77
2024/04/06 00:13:27;;;;;;;4.78;2.85;;;;;;;14.11;100.00;99407.19;5060180;28;20162;-77
2024/04/06 00:15:52;;;;;;;4.07;2.42;;;;;;;14.12;100.00;99419.16;5043930;28;20036;-77
2024/04/06 00:18:18;;;;;;;5.35;2.72;;;;;;;14.09;100.00;99404.72;5055922;28;20036;-77
2024/04/06 00:20:43;;;;;;;8.27;3.50;;;;;;;14.09;100.00;99403.91;5007291;28;20037;-77
2024/04/06 00:23:09;;;;;;;7.72;2.75;;;;;;;14.07;100.00;99404.28;5041338;28;20040;-76
2024/04/06 00:25:34;;;;;;;7.60;3.20;;;;;;;14.10;100.00;99399.97;5060098;28;20048;-77
2024/04/06 00:28:00;;;;;;;5.82;2.90;;;;;;;14.07;100.00;99389.50;5042125;28;20041;-77
2024/04/06 00:30:26;;;;;;;7.78;3.25;;;;;;;14.05;100.00;99375.88;5059903;28;20032;-77
2024/04/06 00:32:51;;;;;;;5.93;3.20;;;;;;;14.01;100.00;99377.75;5042699;28;20048;-77
2024/04/06 00:35:16;;;;;;;6.00;2.85;;;;;;;14.02;100.00;99364.59;5014552;28;20032;-77
2024/04/06 00:37:42;;;;;;;6.28;2.97;;;;;;;14.01;100.00;99363.78;5040974;28;20032;-77
2024/04/06 00:40:08;;;;;;;8.77;3.35;;;;;;;14.02;100.00;99371.00;5060138;28;20044;-77
2024/04/06 00:42:35;;;;;;;9.48;3.15;;;;;;;14.01;100.00;99368.53;5059129;28;20040;-77
2024/04/06 00:45:00;;;;;;;10.70;3.33;;;;;;;13.99;100.00;99370.88;5043308;28;20047;-77
2024/04/06 00:47:26;;;;;;;7.90;3.65;;;;;;;14.00;100.00;99358.53;5093212;28;20052;-76
2024/04/06 00:49:51;;;;;;;7.35;3.00;;;;;;;13.98;100.00;99353.28;5051635;28;20038;-76
2024/04/06 00:52:17;;;;;;;6.55;3.70;;;;;;;14.00;100.00;99345.38;5023024;28;20044;-77
2024/04/06 00:54:42;;;;;;;9.77;3.10;;;;;;;14.00;100.00;99350.16;5034509;28;20097;-76
2024/04/06 00:57:08;;;;;;;7.53;3.58;;;;;;;13.99;100.00;99352.13;5041828;28;20366;-77
2024/04/06 00:59:34;;;;;;;7.65;3.80;;;;;;;14.00;100.00;99345.38;5037720;28;20040;-77
2024/04/06 01:02:01;;;;;;;7.63;3.95;;;;;;;13.98;100.00;99338.50;5041954;28;20051;-77
2024/04/06 01:04:26;;;;;;;7.20;3.28;;;;;;;13.97;100.00;99340.50;5043002;28;20044;-77
2024/04/06 01:06:52;;;;;;;6.70;3.55;;;;;;;13.96;100.00;99340.84;5026059;28;20104;-77
2024/04/06 01:09:17;;;;;;;8.85;3.72;;;;;;;13.95;100.00;99330.84;5042600;28;20036;-77
2024/04/06 01:11:43;;;;;;;8.20;3.55;;;;;;;13.92;100.00;99315.59;5076764;28;20510;-76
2024/04/06 01:14:08;;;;;;;7.43;3.92;;;;;;;13.92;100.00;99312.00;5026309;28;20037;-77
2024/04/06 01:16:34;;;;;;;7.45;3.22;;;;;;;13.91;100.00;99302.00;5042621;28;20116;-77
2024/04/06 01:19:00;;;;;;;5.72;3.40;;;;;;;13.90;100.00;99303.13;5059498;28;20532;-77
2024/04/06 01:21:26;;;;;;;8.38;4.07;;;;;;;13.90;100.00;99287.22;5058929;28;20040;-77
2024/04/06 01:23:52;;;;;;;7.00;3.60;;;;;;;13.88;100.00;99292.34;5042441;28;20097;-77
2024/04/06 01:26:17;;;;;;;6.97;3.85;;;;;;;13.89;100.00;99280.00;5031452;28;20120;-77
2024/04/06 01:28:43;;;;;;;5.10;3.55;;;;;;;13.88;100.00;99280.38;5025934;28;20058;-77
2024/04/06 01:31:09;;;;;;;8.90;3.63;;;;;;;13.85;100.00;99287.44;5075707;28;20090;-76
2024/04/06 01:33:34;;;;;;;7.38;3.97;;;;;;;13.83;100.00;99267.44;5058747;28;20102;-77
2024/04/06 01:36:00;;;;;;;8.93;3.97;;;;;;;13.82;100.00;99274.19;5041931;28;20033;-77
2024/04/06 01:38:25;;;;;;;9.13;4.18;;;;;;;13.82;100.00;99279.78;5025470;28;20396;-77
2024/04/06 01:40:51;;;;;;;7.53;4.00;;;;;;;13.81;100.00;99278.94;5025535;28;20033;-77
2024/04/06 01:43:17;;;;;;;6.95;4.13;;;;;;;13.81;100.00;99286.50;5041900;28;20037;-77
2024/04/06 01:45:42;;;;;;;7.45;3.65;;;;;;;13.77;100.00;99285.56;5027913;28;20106;-77
2024/04/06 01:48:07;;;;;;;7.10;3.75;;;;;;;13.77;100.00;99288.38;5060530;28;20040;-77
2024/04/06 01:50:33;;;;;;;9.48;3.80;;;;;;;13.76;100.00;99275.56;5028174;28;20044;-77
2024/04/06 01:52:58;;;;;;;6.80;3.60;;;;;;;13.74;100.00;99275.09;5041338;28;20036;-77
2024/04/06 01:55:24;;;;;;;6.63;3.42;;;;;;;13.72;100.00;99263.47;5057722;28;20047;-77
2024/04/06 01:57:49;;;;;;;7.20;3.70;;;;;;;13.72;100.00;99267.06;5041498;28;20044;-77
2024/04/06 02:00:15;;;;;;;6.78;3.20;;;;;;;13.72;100.00;99263.47;5058275;28;20040;-77
2024/04/06 02:02:40;;;;;;;6.78;3.33;;;;;;;13.70;100.00;99260.19;5058271;28;20055;-77
2024/04/06 02:05:06;;;;;;;7.97;3.58;;;;;;;13.70;100.00;99252.63;5075983;28;20043;-77
2024/04/06 02:07:31;;;;;;;7.95;3.70;;;;;;;13.69;100.00;99251.03;5009650;28;20111;-77
2024/04/06 02:09:57;;;;;;;8.15;3.53;;;;;;;13.69;100.00;99242.66;5041688;28;20044;-77
2024/04/06 02:12:23;;;;;;;9.75;3.88;;;;;;;13.71;100.00;99248.72;5041621;28;20040;-77
2024/04/06 02:14:49;;;;;;;8.75;3.30;;;;;;;13.68;100.00;99243.81;5041534;28;20101;-77
2024/04/06 02:17:14;;;;;;;9.30;3.60;;;;;;;13.69;100.00;99234.28;5024996;28;20036;-77
2024/04/06 02:19:40;;;;;;;10.38;4.15;;;;;;;13.69;100.00;99236.25;5041374;28;20041;-77
2024/04/06 02:22:05;;;;;;;7.97;3.72;;;;;;;13.69;100.00;99225.09;5041498;28;20070;-77
2024/04/06 02:24:31;;;;;;;5.78;3.30;;;;;;;13.68;100.00;99210.34;5024186;28;20127;-77
2024/04/06 02:26:57;;;;;;;6.50;3.15;;;;;;;13.68;100.00;99207.56;5041041;28;20033;-77
2024/04/06 02:29:23;;;;;;;6.28;3.20;;;;;;;13.67;100.00;99202.31;5019798;28;20477;-77
2024/04/06 02:31:48;;;;;;;5.47;3.15;;;;;;;13.69;100.00;99200.00;5041221;28;20044;-77
2024/04/06 02:34:13;;;;;;;8.75;4.22;;;;;;;13.69;100.00;99200.00;5041002;28;20052;-77
2024/04/06 02:36:39;;;;;;;7.00;3.83;;;;;;;13.66;100.00;99198.72;5024913;28;20033;-77
2024/04/06 02:39:09;;;;;;;8.98;3.42;;;;;;;13.69;100.00;99194.41;5024561;28;20032;-77
2024/04/06 02:41:35;;;;;;;12.05;3.45;;;;;;;13.69;100.00;99189.66;5040786;28;20044;-77
2024/04/06 02:44:00;;;;;;;5.20;3.63;;;;;;;13.67;100.00;99175.22;5057667;28;20048;-77
2024/04/06 02:46:26;;;;;;;6.05;3.30;;;;;;;13.67;100.00;99160.47;5084165;28;20036;-77
2024/04/06 02:48:51;;;;;;;7.47;3.50;;;;;;;13.68;100.00;99160.13;5056620;28;20040;-76
2024/04/06 02:51:17;;;;;;;10.02;3.63;;;;;;;13.67;100.00;99160.47;5059851;28;20040;-77
2024/04/06 02:53:42;;;;;;;6.85;3.25;;;;;;;13.67;100.00;99155.69;5044968;28;20041;-77
2024/04/06 02:56:08;;;;;;;5.75;3.60;;;;;;;13.65;100.00;99146.88;5044928;28;20060;-77
2024/04/06 02:58:33;;;;;;;8.68;3.83;;;;;;;13.67;100.00;99141.75;5011978;28;20074;-77
2024/04/06 03:00:59;;;;;;;9.50;3.53;;;;;;;13.64;100.00;99143.25;5042113;28;20497;-77
2024/04/06 03:03:24;;;;;;;10.38;3.85;;;;;;;13.64;100.00;99150.81;5044873;28;20044;-77
2024/04/06 03:05:50;;;;;;;8.40;3.80;;;;;;;13.63;100.00;99136.06;5061712;28;20036;-77
2024/04/06 03:08:15;;;;;;;8.68;3.85;;;;;;;13.62;100.00;99142.81;5011614;28;20043;-77
2024/04/06 03:10:41;;;;;;;9.75;3.78;;;;;;;13.61;100.00;99135.56;5028436;28;20503;-77
2024/04/06 03:13:06;;;;;;;7.85;3.28;;;;;;;13.60;100.00;99130.38;5044019;28;20028;-77
2024/04/06 03:15:32;;;;;;;5.75;3.65;;;;;;;13.58;100.00;99138.25;5045138;28;20043;-77
2024/04/06 03:17:59;;;;;;;7.22;3.60;;;;;;;13.56;100.00;99135.00;5079252;28;20503;-77
2024/04/06 03:20:25;;;;;;;8.32;3.90;;;;;;;13.55;100.00;99139.75;5044701;28;20048;-77
2024/04/06 03:23:01;;;;;;;8.77;3.85;;;;;;;13.55;100.00;99142.56;5044634;28;20039;-77
2024/04/06 03:25:27;;;;;;;10.50;3.78;;;;;;;13.52;100.00;99140.47;5028082;28;20036;-76
2024/04/06 03:27:52;;;;;;;8.77;3.55;;;;;;;13.52;100.00;99128.50;5028052;28;20060;-77
2024/04/06 03:30:18;;;;;;;8.88;3.85;;;;;;;13.48;100.00;99133.94;5044879;28;20647;-76
2024/04/06 03:32:43;;;;;;;6.78;3.40;;;;;;;13.48;100.00;99121.97;5011658;28;20040;-77
2024/04/06 03:35:09;;;;;;;8.43;3.75;;;;;;;13.47;100.00;99114.78;5043967;28;20044;-77
2024/04/06 03:37:34;;;;;;;7.10;3.28;;;;;;;13.45;100.00;99122.66;5060765;28;20070;-77
2024/04/06 03:40:01;;;;;;;9.68;3.70;;;;;;;13.43;100.00;99111.03;5044394;28;20047;-77
2024/04/06 03:42:26;;;;;;;7.18;3.47;;;;;;;13.41;100.00;99100.25;5044382;28;20502;-76
2024/04/06 03:44:52;;;;;;;10.05;3.65;;;;;;;13.38;100.00;99075.84;5027824;28;20036;-76
2024/04/06 03:47:18;;;;;;;8.88;3.50;;;;;;;13.38;100.00;99087.81;5027867;28;20051;-78
2024/04/06 03:49:43;;;;;;;7.70;3.28;;;;;;;13.36;100.00;99084.53;5044214;28;20451;-77
2024/04/06 03:52:09;;;;;;;8.10;3.47;;;;;;;13.36;100.00;99086.53;5023007;28;20051;-77
2024/04/06 03:54:34;;;;;;;5.88;3.40;;;;;;;13.33;100.00;99092.78;5060945;28;20517;-77
2024/04/06 03:56:59;;;;;;;7.10;3.25;;;;;;;13.32;100.00;99094.78;5059306;28;20048;-78
2024/04/06 03:59:25;;;;;;;8.40;3.55;;;;;;;13.30;100.00;99090.72;5060713;28;20094;-77
2024/04/06 04:01:51;;;;;;;7.85;3.35;;;;;;;13.28;100.00;99085.47;5043875;28;20059;-76
2024/04/06 04:04:16;;;;;;;8.90;3.22;;;;;;;13.30;100.00;99073.97;5040734;28;20125;-77
2024/04/06 04:06:41;;;;;;;7.43;3.25;;;;;;;13.28;100.00;99062.34;5038690;28;20044;-77
2024/04/06 04:09:07;;;;;;;10.10;3.10;;;;;;;13.28;100.00;99065.94;5043935;28;20446;-76
2024/04/06 04:11:33;;;;;;;9.32;3.30;;;;;;;13.26;100.00;99065.50;5018975;28;20033;-77
2024/04/06 04:13:58;;;;;;;7.85;3.55;;;;;;;13.27;100.00;99075.47;5043960;28;20063;-77
2024/04/06 04:16:24;;;;;;;8.75;2.90;;;;;;;13.26;100.00;99070.25;5027121;28;20032;-77
2024/04/06 04:18:49;;;;;;;9.20;2.90;;;;;;;13.26;100.00;99068.28;5027285;28;20492;-77
2024/04/06 04:21:15;;;;;;;8.30;3.20;;;;;;;13.26;100.00;99047.94;5027115;28;20480;-77
2024/04/06 04:23:41;;;;;;;8.57;3.00;;;;;;;13.25;100.00;99043.50;5027283;28;20036;-77
2024/04/06 04:26:07;;;;;;;8.43;3.00;;;;;;;13.24;100.00;99045.47;5043297;28;20028;-77
2024/04/06 04:28:32;;;;;;;7.07;2.90;;;;;;;13.23;100.00;99041.03;5043867;28;20505;-77
2024/04/06 04:31:15;;;;;;;11.27;2.72;;;;;;;13.23;100.00;99031.88;5042767;28;20102;-77
2024/04/06 04:33:41;;;;;;;6.55;3.08;;;;;;;13.22;100.00;99024.69;5033646;28;20041;-77
2024/04/06 04:36:07;;;;;;;8.88;2.95;;;;;;;13.22;100.00;99017.13;5023148;28;20039;-76
2024/04/06 04:38:33;;;;;;;8.50;2.88;;;;;;;13.21;100.00;99014.72;5019116;28;20088;-77
2024/04/06 04:40:58;;;;;;;7.15;2.75;;;;;;;13.21;100.00;99021.09;5043133;28;20477;-77
2024/04/06 04:43:24;;;;;;;8.48;3.38;;;;;;;13.21;100.00;99015.50;5027047;28;20041;-77
2024/04/06 04:45:50;;;;;;;6.03;2.92;;;;;;;13.18;100.00;99003.09;5076375;28;20064;-77
2024/04/06 04:48:15;;;;;;;6.60;2.70;;;;;;;13.18;100.00;99005.88;5057789;28;20028;-77
2024/04/06 04:50:41;;;;;;;5.70;2.85;;;;;;;13.18;100.00;99008.66;5059758;28;20045;-77
2024/04/06 04:53:06;;;;;;;8.55;2.72;;;;;;;13.18;100.00;99008.66;5043179;28;20036;-77
2024/04/06 04:55:32;;;;;;;7.50;2.60;;;;;;;13.13;100.00;99022.00;5043156;28;20043;-77
2024/04/06 04:57:58;;;;;;;6.97;2.90;;;;;;;13.13;100.00;99022.81;5033219;28;20036;-76
2024/04/06 05:00:24;;;;;;;9.23;3.20;;;;;;;13.13;100.00;99031.19;5057466;28;20037;-77
2024/04/06 05:02:50;;;;;;;9.05;2.63;;;;;;;13.15;100.00;99048.38;5042723;28;20102;-77
2024/04/06 05:05:15;;;;;;;6.50;2.30;;;;;;;13.15;100.00;99053.16;5070207;28;20044;-77
2024/04/06 05:07:41;;;;;;;7.32;2.33;;;;;;;13.13;100.00;99059.06;5042767;28;20455;-77
2024/04/06 05:10:09;;;;;;;8.10;2.47;;;;;;;13.13;100.00;99067.41;5042872;28;20552;-77
2024/04/06 05:12:35;;;;;;;4.38;2.35;;;;;;;13.11;100.00;99058.56;5059700;28;20048;-77
2024/04/06 05:15:03;;;;;;;7.43;2.50;;;;;;;13.09;100.00;99060.91;5021632;28;20500;-77
2024/04/06 05:17:28;;;;;;;9.65;2.15;;;;;;;13.08;100.00;99048.13;5042363;28;20071;-77
2024/04/06 05:19:54;;;;;;;5.47;2.13;;;;;;;13.07;100.00;99045.69;5025340;28;20119;-77
2024/04/06 05:22:19;;;;;;;8.13;2.45;;;;;;;13.06;100.00;99044.88;5041416;28;20386;-77
2024/04/06 05:24:45;;;;;;;10.20;2.30;;;;;;;13.05;100.00;99048.81;5041609;28;20043;-77
2024/04/06 05:27:10;;;;;;;7.15;2.42;;;;;;;13.06;100.00;99055.22;5037261;28;20040;-77
2024/04/06 05:29:36;;;;;;;6.57;2.40;;;;;;;13.05;100.00;99048.00;5022054;28;20060;-77
2024/04/06 05:32:01;;;;;;;9.48;2.28;;;;;;;13.04;100.00;99040.78;5034354;28;20036;-77
2024/04/06 05:34:27;;;;;;;6.68;2.13;;;;;;;13.04;100.00;99052.78;5042620;28;20040;-77
2024/04/06 05:36:53;;;;;;;5.95;2.47;;;;;;;13.02;100.00;99046.72;5057883;28;20035;-77
2024/04/06 05:39:18;;;;;;;7.03;2.15;;;;;;;13.02;100.00;99043.13;5024442;28;20033;-77
2024/04/06 05:41:44;;;;;;;6.20;1.92;;;;;;;12.99;100.00;99055.78;5058426;28;20044;-76
2024/04/06 05:44:09;;;;;;;5.82;2.03;;;;;;;12.97;100.00;99052.53;5054860;28;20039;-77
2024/04/06 05:46:39;;;;;;;7.35;2.17;;;;;;;12.94;100.00;99047.66;5024943;28;20047;-77
2024/04/06 05:49:05;;;;;;;8.07;2.30;;;;;;;12.94;100.00;99048.44;5023933;28;20131;-77
2024/04/06 05:51:34;;;;;;;5.93;2.22;;;;;;;12.92;100.00;99044.38;5026025;28;20121;-77
2024/04/06 05:54:03;;;;;;;6.55;1.92;;;;;;;12.95;100.00;99043.69;5041733;28;20032;-77
2024/04/06 05:56:29;;;;;;;5.38;1.90;;;;;;;12.92;100.00;99058.31;5075801;28;20056;-77
2024/04/06 05:58:54;;;;;;;6.47;2.13;;;;;;;12.94;100.00;99058.78;5041346;28;20516;-77
2024/04/06 06:01:19;;;;;;;8.57;2.85;;;;;;;12.94;100.00;99062.38;5021315;28;20040;-77
2024/04/06 06:03:45;;;;;;;5.22;1.63;;;;;;;12.92;100.00;99073.06;5035219;28;20048;-76
2024/04/06 06:06:10;;;;;;;5.15;1.92;;;;;;;12.93;100.00;99066.34;5022806;28;20044;-77
2024/04/06 06:08:37;;;;;;;9.57;2.35;;;;;;;12.95;100.00;99077.97;5053280;28;20047;-77
2024/04/06 06:11:04;;;;;;;9.02;1.92;;;;;;;12.93;100.00;99080.28;5029758;28;20116;-77
2024/04/06 06:13:29;;;;;;;8.02;2.13;;;;;;;12.94;100.00;99076.31;5035535;28;20074;-77
2024/04/06 06:15:55;;;;;;;9.18;2.00;;;;;;;12.95;100.00;99071.56;5015734;28;20048;-77
2024/04/06 06:18:20;;;;;;;5.47;1.85;;;;;;;12.96;100.00;99084.34;5051268;28;20028;-77
2024/04/06 06:20:46;;;;;;;6.35;2.15;;;;;;;12.95;100.00;99099.41;5035869;28;20041;-77
2024/04/06 06:23:11;;;;;;;7.15;2.15;;;;;;;12.96;100.00;99089.91;5029003;28;20047;-76
2024/04/06 06:25:38;;;;;;;7.00;2.03;;;;;;;12.99;100.00;99089.22;4999928;28;20033;-77
2024/04/06 06:28:03;;;;;;;7.10;2.00;;;;;;;12.99;100.00;99089.22;5018588;28;20499;-77
2024/04/06 06:30:29;;;;;;;7.30;1.90;;;;;;;13.00;100.00;99074.13;5037829;28;20036;-76
2024/04/06 06:32:56;;;;;;;5.63;1.70;;;;;;;13.03;100.00;99067.03;5038810;28;20059;-76
2024/04/06 06:35:21;;;;;;;4.68;1.85;;;;;;;13.07;100.00;99068.81;5049055;28;20040;-76
2024/04/06 06:37:48;;;;;;;6.25;2.15;;;;;;;13.09;100.00;99066.50;5049440;28;20501;-76
2024/04/06 06:40:24;;;;;;;8.75;2.00;;;;;;;13.12;100.00;99056.59;5041321;28;20041;-77
2024/04/06 06:42:49;;;;;;;7.65;1.88;;;;;;;13.16;100.00;99066.72;5048383;28;20910;-77
2024/04/06 06:45:15;;;;;;;4.68;1.70;;;;;;;13.21;100.00;99067.69;5019347;28;20036;-77
2024/04/06 06:47:40;;;;;;;6.97;1.52;;;;;;;13.25;100.00;99063.03;5059867;28;20025;-77
2024/04/06 06:50:06;;;;;;;5.20;1.58;;;;;;;13.27;100.00;99064.34;5014461;28;20035;-77
2024/04/06 06:52:31;;;;;;;5.13;1.40;;;;;;;13.31;100.00;99145.31;5033866;28;20068;-77
2024/04/06 06:54:57;;;;;;;6.13;1.45;;;;;;;13.36;100.00;99189.69;5047362;28;20070;-76
2024/04/06 06:57:22;;;;;;;5.35;1.90;;;;;;;13.40;100.00;99222.13;5064224;28;20040;-76
2024/04/06 06:59:48;;;;;;;4.13;1.52;;;;;;;13.45;100.00;99190.41;5082904;28;20370;-77
2024/04/06 07:02:13;;;;;;;4.93;1.58;;;;;;;13.51;100.00;99196.56;5031163;28;20036;-77
2024/04/06 07:04:39;;;;;;;6.15;1.80;;;;;;;13.55;100.00;99201.13;5062774;28;20037;-76
2024/04/06 07:07:05;;;;;;;6.68;2.00;;;;;;;13.60;100.00;99202.88;5078828;28;20095;-76
2024/04/06 07:09:30;;;;;;;5.65;2.10;;;;;;;13.64;100.00;99213.00;5027378;28;20412;-77
2024/04/06 07:11:56;;;;;;;5.45;1.73;;;;;;;13.70;100.00;99212.78;5049786;28;20028;-77
2024/04/06 07:14:21;;;;;;;7.25;1.80;;;;;;;13.79;100.00;99199.53;5054581;28;20041;-77
2024/04/06 07:16:48;;;;;;;8.25;2.38;;;;;;;13.81;100.00;99233.47;5072830;28;20037;-77
2024/04/06 07:19:13;;;;;;;8.40;1.85;;;;;;;13.87;100.00;99220.91;5057524;28;20032;-77
2024/04/06 07:21:38;;;;;;;6.40;1.67;;;;;;;13.95;100.00;99247.09;5040802;28;20089;-76
2024/04/06 07:24:06;;;;;;;4.82;1.70;;;;;;;14.01;100.00;99232.59;5024643;28;20044;-77
2024/04/06 07:26:31;;;;;;;4.72;1.85;;;;;;;14.07;100.00;99239.56;5041268;28;20039;-76
2024/04/06 07:28:57;;;;;;;3.38;1.45;;;;;;;14.16;100.00;99235.84;5056725;28;20033;-76
2024/04/06 07:31:23;;;;;;;4.32;1.60;;;;;;;14.22;100.00;99251.19;5041170;28;20037;-76
2024/04/06 07:33:52;;;;;;;6.60;1.42;;;;;;;14.28;100.00;99236.63;5024820;28;20036;-77
2024/04/06 07:36:18;;;;;;;8.45;1.67;;;;;;;14.34;100.00;99242.81;5038857;28;20029;-77
2024/04/06 07:38:43;;;;;;;9.10;1.83;;;;;;;14.43;100.00;99245.47;5003365;28;20044;-77
2024/04/06 07:41:09;;;;;;;5.32;1.55;;;;;;;14.46;100.00;99239.22;5040794;28;20059;-77
2024/04/06 07:43:35;;;;;;;5.03;1.40;;;;;;;14.48;100.00;99240.47;5061370;28;20044;-77
2024/04/06 07:46:01;;;;;;;4.57;1.40;;;;;;;14.57;100.00;99242.34;5027489;28;20036;-77
2024/04/06 07:48:26;;;;;;;4.15;1.30;;;;;;;14.60;100.00;99242.47;5055867;28;20500;-77
2024/04/06 07:50:51;;;;;;;5.13;1.48;;;;;;;14.63;100.00;99255.75;5073446;28;20033;-77
2024/04/06 07:53:18;;;;;;;5.53;1.52;;;;;;;14.67;100.00;99261.44;5015793;28;20448;-77
2024/04/06 07:55:43;;;;;;;5.18;1.30;;;;;;;14.71;100.00;99262.38;5044273;28;20040;-76
2024/04/06 07:58:09;;;;;;;8.90;1.70;;;;;;;14.74;100.00;99259.69;5043603;28;20036;-78
2024/04/06 08:00:34;;;;;;;5.97;1.60;;;;;;;14.78;100.00;99256.16;5043752;28;20040;-77
2024/04/06 08:03:00;;;;;;;6.53;1.77;;;;;;;14.82;100.00;99263.50;5027006;28;20041;-77
2024/04/06 08:05:25;;;;;;;10.65;1.85;;;;;;;14.86;100.00;99264.41;5027011;28;20036;-77
2024/04/06 08:07:51;;;;;;;13.02;2.92;;;;;;;14.92;100.00;99274.19;5043936;28;20072;-77
2024/04/06 08:10:18;;;;;;;10.18;2.45;;;;;;;14.96;100.00;99288.28;5043849;28;20044;-77
2024/04/06 08:12:44;;;;;;;11.70;2.67;;;;;;;14.97;100.00;99282.31;5043561;28;20648;-77
2024/04/06 08:15:10;;;;;;;14.25;2.50;;;;;;;15.05;100.00;99286.16;5027912;28;20036;-77
2024/04/06 08:17:48;;;;;;;13.20;3.05;;;;;;;15.09;100.00;99292.66;5043605;28;20028;-77
2024/04/06 08:20:13;;;;;;;19.35;3.28;;;;;;;15.12;100.00;99283.56;5060576;28;20096;-77
2024/04/06 08:22:39;;;;;;;16.90;3.67;;;;;;;15.17;100.00;99302.06;5043416;28;20404;-77
2024/04/06 08:25:05;;;;;;;18.73;3.53;;;;;;;15.24;100.00;99299.50;5023371;28;20033;-77
2024/04/06 08:27:34;;;;;;;16.48;2.97;;;;;;;15.26;100.00;99313.94;5043101;28;20508;-77
2024/04/06 08:30:04;;;;;;;22.00;3.58;;;;;;;15.31;100.00;99307.28;5059217;28;20049;-77
2024/04/06 08:32:30;;;;;;;18.73;4.07;;;;;;;15.35;100.00;99317.41;5030566;28;20040;-78
2024/04/06 08:34:58;;;;;;;22.45;4.00;;;;;;;15.41;100.00;99313.19;5038390;28;20488;-77
2024/04/06 08:37:23;;;;;;;20.52;3.83;;;;;;;15.49;100.00;99321.78;5035219;28;20045;-77
2024/04/06 08:39:49;;;;;;;22.55;3.83;;;;;;;15.54;100.00;99319.53;5021095;28;20048;-77
2024/04/06 08:42:19;;;;;;;19.85;4.07;;;;;;;15.61;100.00;99332.94;5035361;28;20041;-78
2024/04/06 08:44:44;;;;;;;21.70;3.80;;;;;;;15.66;100.00;99329.88;5037889;28;20557;-77
2024/04/06 08:47:12;;;;;;;17.35;3.35;;;;;;;15.72;100.00;99334.06;5040051;28;20075;-77
2024/04/06 08:49:38;;;;;;;22.67;4.20;;;;;;;15.82;100.00;99333.56;5016783;28;20037;-77
2024/04/06 08:52:04;;;;;;;24.35;4.30;;;;;;;15.94;100.00;99329.06;5032797;28;20692;-77
2024/04/06 08:54:30;;;;;;;22.30;4.63;;;;;;;16.05;100.00;99346.97;5017803;28;20095;-77
2024/04/06 08:56:58;;;;;;;31.77;4.63;;;;;;;16.15;100.00;99349.22;5034249;28;20097;-77
2024/04/06 08:59:24;;;;;;;22.85;4.50;;;;;;;16.25;100.00;99350.69;5057113;28;20050;-77
2024/04/06 09:01:49;;;;;;;23.33;4.68;;;;;;;16.34;100.00;99359.72;5038028;28;20040;-77
2024/04/06 09:04:15;;;;;;;25.33;4.43;;;;;;;16.44;100.00;99350.78;5036144;28;20045;-77
2024/04/06 09:06:40;;;;;;;25.83;5.10;;;;;;;16.55;100.00;99345.47;5035002;28;20497;-77
2024/04/06 09:09:06;;;;;;;26.63;4.45;;;;;;;16.68;100.00;99355.38;5071542;28;20044;-77
2024/04/06 09:11:32;;;;;;;30.33;4.85;;;;;;;16.79;100.00;99352.88;5015896;28;20370;-77
2024/04/06 09:14:02;;;;;;;20.95;4.28;;;;;;;16.90;100.00;99353.94;5034975;28;20060;-77
2024/04/06 09:16:28;;;;;;;18.52;4.03;;;;;;;17.00;100.00;99358.19;5031880;28;20645;-77
2024/04/06 09:18:53;;;;;;;20.98;4.35;;;;;;;17.10;100.00;99351.97;5046682;28;20077;-77
2024/04/06 09:21:19;;;;;;;24.83;5.00;;;;;;;17.20;100.00;99362.63;5015374;28;20044;-76
2024/04/06 09:23:44;;;;;;;22.80;4.25;;;;;;;17.31;100.00;99378.91;5019125;28;20056;-76
2024/04/06 09:26:09;;;;;;;25.80;4.32;;;;;;;17.37;100.00;99391.47;5032265;28;20109;-76
2024/04/06 09:28:35;;;;;;;20.55;4.20;;;;;;;17.47;100.00;99388.09;5047847;28;21329;-76
2024/04/06 09:31:01;;;;;;;21.30;4.50;;;;;;;17.53;100.00;99385.81;5028505;28;20063;-76
2024/04/06 09:33:27;;;;;;;18.10;3.63;;;;;;;17.56;100.00;99391.50;5002010;28;20025;-76
2024/04/06 09:35:53;;;;;;;25.25;5.05;;;;;;;17.59;100.00;99373.09;5013069;28;20032;-76
2024/04/06 09:38:18;;;;;;;24.45;4.40;;;;;;;17.60;100.00;99388.75;5041263;28;20071;-75
2024/04/06 09:40:47;;;;;;;22.75;4.82;;;;;;;17.60;100.00;99381.13;5023778;28;20052;-76
2024/04/06 09:43:13;;;;;;;21.80;4.90;;;;;;;17.62;100.00;99400.44;5038997;28;20407;-70
2024/04/06 09:45:39;;;;;;;20.17;3.85;;;;;;;17.61;100.00;99410.06;5034955;28;20028;-76
2024/04/06 09:48:09;;;;;;;24.65;4.43;;;;;;;17.57;100.00;99397.91;5041952;28;20093;-77
2024/04/06 09:50:38;;;;;;;24.38;4.13;;;;;;;17.55;100.00;99387.06;5024534;28;20040;-77
2024/04/06 09:53:07;;;;;;;24.02;4.63;;;;;;;17.57;100.00;99387.50;5049501;28;20036;-77
2024/04/06 09:55:35;;;;;;;26.00;4.40;;;;;;;17.50;100.00;99398.59;5028272;28;20710;-77
2024/04/06 09:58:02;;;;;;;26.70;4.78;;;;;;;17.48;100.00;99398.13;5034195;28;20039;-77
2024/04/06 10:00:27;;;;;;;23.77;4.55;;;;;;;17.45;100.00;99393.25;5051841;28;20500;-76
2024/04/06 10:02:53;;;;;;;24.38;4.57;;;;;;;17.39;100.00;99420.00;5020268;28;20052;-77
2024/04/06 10:05:18;;;;;;;27.17;4.78;;;;;;;17.38;100.00;99436.00;5014088;28;20036;-77
2024/04/06 10:07:49;;;;;;;24.35;5.10;;;;;;;17.34;100.00;99449.13;5018391;28;20033;-77
2024/04/06 10:10:15;;;;;;;19.73;4.10;;;;;;;17.29;100.00;99446.59;5018989;28;20520;-77
2024/04/06 10:12:43;;;;;;;31.38;5.07;;;;;;;17.31;100.00;99460.28;5018877;28;20156;-77
2024/04/06 10:15:18;;;;;;;22.90;4.47;;;;;;;17.25;100.00;99461.75;5064817;28;20040;-77
2024/04/06 10:17:54;;;;;;;23.67;3.85;;;;;;;17.27;100.00;99467.78;5034457;28;20093;-78
2024/04/06 10:20:23;;;;;;;22.00;4.32;;;;;;;17.26;100.00;99463.38;5046995;28;20048;-77
2024/04/06 10:22:52;;;;;;;16.63;3.65;;;;;;;17.26;100.00;99464.19;5043385;28;20037;-77
2024/04/06 10:25:23;;;;;;;23.90;4.40;;;;;;;17.23;100.00;99470.53;5066613;28;20036;-77
2024/04/06 10:27:48;;;;;;;28.83;4.53;;;;;;;17.28;100.00;99458.22;5015344;28;20037;-77
2024/04/06 10:30:14;;;;;;;25.98;4.10;;;;;;;17.30;100.00;99441.81;5017641;28;20037;-77
2024/04/06 10:32:39;;;;;;;23.95;4.72;;;;;;;17.35;100.00;99431.09;5060792;28;20037;-76
2024/04/06 10:35:05;;;;;;;21.60;4.32;;;;;;;17.39;100.00;99420.00;5016831;28;20051;-77
2024/04/06 10:37:30;;;;;;;22.30;3.95;;;;;;;17.41;100.00;99417.59;5015770;28;20377;-77
2024/04/06 10:39:56;;;;;;;22.55;3.58;;;;;;;17.41;100.00;99423.22;5018096;28;20035;-77
2024/04/06 10:42:25;;;;;;;17.63;3.45;;;;;;;17.32;100.00;99400.16;5050079;28;20033;-77
2024/04/06 10:44:51;;;;;;;20.58;3.45;;;;;;;17.45;100.00;99381.22;5037659;28;20404;-77
2024/04/06 10:47:17;;;;;;;16.95;3.53;;;;;;;17.50;100.00;99397.78;5038752;28;20036;-77
2024/04/06 10:49:46;;;;;;;18.10;3.15;;;;;;;17.51;100.00;99380.56;5041242;28;20044;-77
2024/04/06 10:52:12;;;;;;;18.20;3.72;;;;;;;17.65;100.00;99383.66;5046658;28;20033;-78
2024/04/06 10:54:37;;;;;;;18.85;3.88;;;;;;;17.75;100.00;99364.63;5041206;28;20048;-78
2024/04/06 10:57:05;;;;;;;16.60;3.58;;;;;;;17.88;100.00;99393.38;5040332;28;20047;-78
2024/04/06 10:59:30;;;;;;;15.15;2.92;;;;;;;17.99;100.00;99369.09;5041298;28;20029;-78
2024/04/06 11:01:56;;;;;;;21.92;3.45;;;;;;;18.10;100.00;99353.28;5038503;28;20052;-77
2024/04/06 11:04:23;;;;;;;21.13;3.55;;;;;;;18.26;100.00;99347.53;5000092;28;20040;-77
2024/04/06 11:06:49;;;;;;;16.90;2.95;;;;;;;18.40;100.00;99356.22;5037931;28;20045;-78
2024/04/06 11:09:14;;;;;;;13.05;3.08;;;;;;;18.54;100.00;99383.78;5034026;28;20124;-78
2024/04/06 11:11:40;;;;;;;13.88;2.53;;;;;;;18.67;100.00;99361.91;5008068;28;20497;-78
2024/04/06 11:14:07;;;;;;;15.45;3.35;;;;;;;18.79;100.00;99391.88;5044589;28;20052;-78
2024/04/06 11:16:33;;;;;;;16.92;3.83;;;;;;;18.95;100.00;99409.41;5043589;28;20040;-78